createdAt,value
2023-04-25T00:01:30.305Z,8.30
2023-04-25T00:03:58.473Z,8.30
2023-04-25T00:06:27.347Z,8.30
2023-04-25T00:08:54.949Z,8.30
2023-04-25T00:11:21.697Z,8.30
2023-04-25T00:13:50.728Z,8.30
2023-04-25T00:16:18.286Z,8.20
2023-04-25T00:18:47.206Z,8.30
2023-04-25T00:21:13.900Z,8.20
2023-04-25T00:23:40.683Z,8.20
2023-04-25T00:26:07.332Z,8.20
2023-04-25T00:28:34.184Z,8.20
2023-04-25T00:31:01.013Z,8.20
2023-04-25T00:33:27.814Z,8.10
2023-04-25T00:35:54.764Z,8.10
2023-04-25T00:38:21.432Z,8.10
2023-04-25T00:40:48.382Z,8.10
2023-04-25T00:43:15.122Z,8.10
2023-04-25T00:45:43.905Z,8.10
2023-04-25T00:48:10.617Z,8.20
2023-04-25T00:50:37.933Z,8.20
2023-04-25T00:53:05.017Z,8.20
2023-04-25T00:55:32.537Z,8.20
2023-04-25T00:57:59.402Z,8.20
2023-04-25T01:00:26.267Z,8.20
2023-04-25T01:02:53.570Z,8.20
2023-04-25T01:05:20.434Z,8.20
2023-04-25T01:07:48.236Z,8.30
2023-04-25T01:10:15.022Z,8.30
2023-04-25T01:12:41.931Z,8.30
2023-04-25T01:15:08.945Z,8.30
2023-04-25T01:17:36.547Z,8.30
2023-04-25T01:20:08.550Z,8.30
2023-04-25T01:22:35.528Z,8.30
2023-04-25T01:25:03.006Z,8.30
2023-04-25T01:27:30.213Z,8.30
2023-04-25T01:29:57.718Z,8.20
2023-04-25T01:32:24.847Z,8.20
2023-04-25T01:34:51.554Z,8.20
2023-04-25T01:37:18.811Z,8.20
2023-04-25T01:39:45.740Z,8.20
2023-04-25T01:42:13.583Z,8.20
2023-04-25T01:44:40.378Z,8.20
2023-04-25T01:47:07.153Z,8.20
2023-04-25T01:49:33.954Z,8.10
2023-04-25T01:52:00.761Z,8.10
2023-04-25T01:54:27.593Z,8.10
2023-04-25T01:56:54.310Z,8.10
2023-04-25T01:59:22.833Z,8.20
2023-04-25T02:01:49.749Z,8.20
2023-04-25T02:04:16.697Z,8.20
2023-04-25T02:06:43.637Z,8.20
2023-04-25T02:09:10.486Z,8.30
2023-04-25T02:11:37.288Z,8.30
2023-04-25T02:14:04.044Z,8.20
2023-04-25T02:16:31.727Z,8.30
2023-04-25T02:18:58.531Z,8.30
2023-04-25T02:21:25.198Z,8.30
2023-04-25T02:23:53.152Z,8.30
2023-04-25T02:26:20.103Z,8.30
2023-04-25T02:28:46.815Z,8.30
2023-04-25T02:31:13.605Z,8.30
2023-04-25T02:33:40.328Z,8.40
2023-04-25T02:36:07.460Z,8.40
2023-04-25T02:38:34.221Z,8.40
2023-04-25T02:41:01.065Z,8.40
2023-04-25T02:43:27.739Z,8.50
2023-04-25T02:45:55.168Z,8.50
2023-04-25T02:48:21.967Z,8.50
2023-04-25T02:50:48.688Z,8.50
2023-04-25T02:53:15.481Z,8.40
2023-04-25T02:55:42.266Z,8.50
2023-04-25T02:58:09.038Z,8.50
2023-04-25T03:00:35.830Z,8.50
2023-04-25T03:03:02.717Z,8.40
2023-04-25T03:05:29.473Z,8.40
2023-04-25T03:07:56.204Z,8.50
2023-04-25T03:10:22.925Z,8.50
2023-04-25T03:12:49.670Z,8.40
2023-04-25T03:15:17.684Z,8.50
2023-04-25T03:17:44.529Z,8.50
2023-04-25T03:20:11.879Z,8.50
2023-04-25T03:22:38.731Z,8.50
2023-04-25T03:25:06.001Z,8.50
2023-04-25T03:27:32.712Z,8.50
2023-04-25T03:29:59.388Z,8.50
2023-04-25T03:32:26.143Z,8.50
2023-04-25T03:34:52.920Z,8.50
2023-04-25T03:37:19.617Z,8.40
2023-04-25T03:39:46.365Z,8.40
2023-04-25T03:42:13.181Z,8.50
2023-04-25T03:44:39.906Z,8.40
2023-04-25T03:47:07.210Z,8.40
2023-04-25T03:49:35.092Z,8.40
2023-04-25T03:52:01.999Z,8.40
2023-04-25T03:54:28.672Z,8.40
2023-04-25T03:56:55.403Z,8.40
2023-04-25T03:59:22.146Z,8.40
2023-04-25T04:01:48.960Z,8.40
2023-04-25T04:04:15.820Z,8.40
2023-04-25T04:06:43.358Z,8.40
2023-04-25T04:09:12.002Z,8.30
2023-04-25T04:11:39.659Z,8.40
2023-04-25T04:14:07.686Z,8.40
2023-04-25T04:16:35.036Z,8.40
2023-04-25T04:19:01.866Z,8.40
2023-04-25T04:21:28.651Z,8.40
2023-04-25T04:23:55.515Z,8.40
2023-04-25T04:26:27.045Z,8.40
2023-04-25T04:28:55.278Z,8.40
2023-04-25T04:31:23.030Z,8.40
2023-04-25T04:33:50.021Z,8.40
2023-04-25T04:36:16.891Z,8.40
2023-04-25T04:38:43.694Z,8.40
2023-04-25T04:41:10.762Z,8.30
2023-04-25T04:43:37.683Z,8.40
2023-04-25T04:46:05.153Z,8.30
2023-04-25T04:48:35.381Z,8.30
2023-04-25T04:51:02.295Z,8.30
2023-04-25T04:53:29.081Z,8.30
2023-04-25T04:55:55.838Z,8.20
2023-04-25T04:58:22.882Z,8.20
2023-04-25T05:00:49.820Z,8.20
2023-04-25T05:03:17.089Z,8.30
2023-04-25T05:05:44.184Z,8.20
2023-04-25T05:08:10.922Z,8.20
2023-04-25T05:10:37.687Z,8.20
2023-04-25T05:13:04.381Z,8.20
2023-04-25T05:15:31.114Z,8.20
2023-04-25T05:17:57.950Z,8.20
2023-04-25T05:20:24.892Z,8.20
2023-04-25T05:22:51.722Z,8.20
2023-04-25T05:25:18.499Z,8.20
2023-04-25T05:27:45.218Z,8.20
2023-04-25T05:30:12.121Z,8.20
2023-04-25T05:32:38.826Z,8.10
2023-04-25T05:35:07.802Z,8.10
2023-04-25T05:37:34.655Z,8.00
2023-04-25T05:40:01.427Z,8.00
2023-04-25T05:42:28.094Z,8.00
2023-04-25T05:44:54.837Z,8.00
2023-04-25T05:47:21.520Z,8.00
2023-04-25T05:49:48.244Z,8.10
2023-04-25T05:52:16.045Z,8.10
2023-04-25T05:54:42.785Z,8.10
2023-04-25T05:57:09.503Z,8.20
2023-04-25T05:59:36.778Z,8.20
2023-04-25T06:02:03.543Z,8.20
2023-04-25T06:04:30.658Z,8.20
2023-04-25T06:06:57.564Z,8.20
2023-04-25T06:09:24.256Z,8.20
2023-04-25T06:11:51.337Z,8.20
2023-04-25T06:14:18.598Z,8.20
2023-04-25T06:16:45.357Z,8.20
2023-04-25T06:19:12.227Z,8.20
2023-04-25T06:21:38.930Z,8.30
2023-04-25T06:24:05.918Z,8.20
2023-04-25T06:26:32.584Z,8.30
2023-04-25T06:28:59.321Z,8.30
2023-04-25T06:31:26.406Z,8.30
2023-04-25T06:33:55.659Z,8.30
2023-04-25T06:36:26.877Z,8.40
2023-04-25T06:38:53.652Z,8.50
2023-04-25T06:41:20.940Z,8.50
2023-04-25T06:43:47.688Z,8.60
2023-04-25T06:46:14.381Z,8.70
2023-04-25T06:48:41.120Z,8.80
2023-04-25T06:51:07.861Z,8.80
2023-04-25T06:53:34.579Z,8.80
2023-04-25T06:56:01.388Z,8.80
2023-04-25T06:58:28.212Z,8.80
2023-04-25T07:00:55.006Z,8.90
2023-04-25T07:03:22.531Z,8.90
2023-04-25T07:05:49.430Z,8.90
2023-04-25T07:08:16.159Z,9.10
2023-04-25T07:10:43.049Z,9.20
2023-04-25T07:13:09.744Z,9.30
2023-04-25T07:15:36.468Z,9.50
2023-04-25T07:18:03.292Z,9.60
2023-04-25T07:20:31.911Z,9.70
2023-04-25T07:22:58.674Z,9.70
2023-04-25T07:25:25.708Z,9.60
2023-04-25T07:27:52.392Z,9.50
2023-04-25T07:30:19.256Z,9.40
2023-04-25T07:32:46.516Z,9.30
2023-04-25T07:35:13.344Z,9.20
2023-04-25T07:37:40.121Z,9.10
2023-04-25T07:40:07.444Z,9.20
2023-04-25T07:42:34.218Z,9.30
2023-04-25T07:45:01.902Z,9.40
2023-04-25T07:47:28.691Z,9.50
2023-04-25T07:49:55.527Z,9.50
2023-04-25T07:52:22.452Z,9.60
2023-04-25T07:54:49.671Z,9.60
2023-04-25T07:57:18.027Z,9.60
2023-04-25T07:59:44.853Z,9.60
2023-04-25T08:02:12.021Z,9.60
2023-04-25T08:04:39.097Z,9.60
2023-04-25T08:07:05.929Z,9.50
2023-04-25T08:09:35.594Z,9.60
2023-04-25T08:12:03.257Z,9.70
2023-04-25T08:14:36.577Z,9.80
2023-04-25T08:17:04.648Z,9.90
2023-04-25T08:30:47.184Z,10.40
2023-04-25T08:33:13.948Z,10.40
2023-04-25T08:35:40.929Z,10.40
2023-04-25T08:38:08.052Z,10.50
2023-04-25T08:40:39.805Z,10.60
2023-04-25T08:43:12.478Z,10.70
2023-04-25T08:45:43.690Z,10.60
2023-04-25T08:48:16.945Z,10.50
2023-04-25T08:50:53.104Z,10.40
2023-04-25T08:53:28.426Z,10.30
2023-04-25T08:55:56.774Z,10.20
2023-04-25T08:58:24.280Z,10.10
2023-04-25T09:00:52.556Z,10.10
2023-04-25T09:03:19.955Z,10.10
2023-04-25T09:05:47.190Z,10.30
2023-04-25T09:08:14.310Z,10.40
2023-04-25T09:10:41.718Z,10.40
2023-04-25T09:13:13.948Z,10.50
2023-04-25T09:15:59.423Z,10.60
2023-04-25T09:18:36.280Z,10.60
2023-04-25T09:21:14.941Z,10.60
2023-04-25T09:23:43.132Z,10.70
2023-04-25T09:26:10.665Z,10.70
2023-04-25T09:28:38.889Z,10.70
2023-04-25T09:31:06.224Z,10.80
2023-04-25T09:33:35.935Z,10.80
2023-04-25T09:36:08.188Z,10.70
2023-04-25T09:38:46.308Z,10.70
2023-04-25T09:41:13.500Z,10.70
2023-04-25T09:43:40.918Z,10.90
2023-04-25T09:46:12.258Z,11.00
2023-04-25T09:48:39.331Z,11.00
2023-04-25T09:51:06.775Z,11.10
2023-04-25T09:53:38.586Z,11.00
2023-04-25T09:56:10.080Z,11.20
2023-04-25T09:58:38.227Z,11.30
2023-04-25T10:01:10.513Z,11.30
2023-04-25T10:03:41.469Z,11.20
2023-04-25T10:06:20.370Z,11.10
2023-04-25T10:08:53.177Z,10.90
2023-04-25T10:11:20.429Z,10.90
2023-04-25T10:13:49.051Z,11.00
2023-04-25T10:16:17.347Z,11.10
2023-04-25T10:18:44.108Z,11.30
2023-04-25T10:21:12.190Z,11.40
2023-04-25T10:23:39.480Z,11.60
2023-04-25T10:26:06.534Z,11.50
2023-04-25T10:28:57.690Z,11.40
2023-04-25T10:31:24.763Z,11.20
2023-04-25T10:33:51.950Z,10.90
2023-04-25T10:36:22.219Z,10.80
2023-04-25T10:38:53.505Z,10.90
2023-04-25T10:41:22.164Z,11.00
2023-04-25T10:43:49.958Z,11.10
2023-04-25T10:46:27.869Z,11.20
2023-04-25T10:48:56.745Z,11.10
2023-04-25T10:51:43.372Z,11.20
2023-04-25T10:54:10.661Z,11.10
2023-04-25T10:56:38.853Z,11.20
2023-04-25T10:59:07.859Z,11.20
2023-04-25T11:01:43.038Z,11.20
2023-04-25T11:04:32.910Z,11.10
2023-04-25T11:07:07.739Z,11.10
2023-04-25T11:09:37.138Z,11.20
2023-04-25T11:12:04.074Z,11.20
2023-04-25T11:14:30.772Z,11.00
2023-04-25T11:17:00.342Z,10.90
2023-04-25T11:19:29.070Z,10.80
2023-04-25T11:22:02.831Z,11.00
2023-04-25T11:24:35.704Z,11.20
2023-04-25T11:27:03.984Z,11.30
2023-04-25T11:29:32.294Z,11.40
2023-04-25T11:31:59.869Z,11.50
2023-04-25T11:34:27.956Z,11.60
2023-04-25T11:36:55.267Z,11.80
2023-04-25T11:39:22.379Z,11.80
2023-04-25T11:41:49.303Z,11.80
2023-04-25T11:44:19.741Z,11.60
2023-04-25T11:46:46.949Z,11.50
2023-04-25T11:49:14.853Z,11.60
2023-04-25T11:51:47.470Z,11.60
2023-04-25T11:54:15.209Z,11.60
2023-04-25T11:56:46.399Z,11.60
2023-04-25T11:59:14.001Z,11.80
2023-04-25T12:01:42.585Z,11.90
2023-04-25T12:04:13.397Z,11.90
2023-04-25T12:06:41.896Z,11.60
2023-04-25T12:09:10.792Z,11.30
2023-04-25T12:11:48.786Z,11.10
2023-04-25T12:14:33.343Z,10.90
2023-04-25T12:17:01.888Z,10.80
2023-04-25T12:19:36.931Z,10.70
2023-04-25T12:22:04.653Z,10.80
2023-04-25T12:24:38.467Z,11.00
2023-04-25T12:27:09.394Z,11.10
2023-04-25T12:29:48.610Z,11.10
2023-04-25T12:32:17.980Z,11.00
2023-04-25T12:34:44.863Z,10.90
2023-04-25T12:37:12.201Z,10.90
2023-04-25T12:39:38.880Z,10.90
2023-04-25T12:42:08.641Z,10.90
2023-04-25T12:44:36.639Z,10.90
2023-04-25T12:47:04.256Z,11.10
2023-04-25T12:49:31.270Z,11.40
2023-04-25T12:51:58.312Z,11.60
2023-04-25T12:54:25.979Z,11.90
2023-04-25T12:56:53.533Z,12.00
2023-04-25T12:59:21.499Z,12.10
2023-04-25T13:01:48.511Z,12.30
2023-04-25T13:04:17.249Z,12.40
2023-04-25T13:06:44.429Z,12.40
2023-04-25T13:09:13.339Z,12.30
2023-04-25T13:11:41.518Z,12.10
2023-04-25T13:14:08.482Z,11.90
2023-04-25T13:16:35.616Z,11.70
2023-04-25T13:19:02.382Z,11.70
2023-04-25T13:21:31.960Z,11.70
2023-04-25T13:23:58.784Z,11.90
2023-04-25T13:26:25.878Z,12.20
2023-04-25T13:28:52.609Z,12.30
2023-04-25T13:31:19.299Z,12.60
2023-04-25T13:33:46.113Z,12.80
2023-04-25T13:36:12.826Z,12.70
2023-04-25T13:38:40.534Z,12.40
2023-04-25T13:41:08.284Z,12.10
2023-04-25T13:43:35.048Z,11.90
2023-04-25T13:46:01.957Z,11.70
2023-04-25T13:48:28.656Z,11.70
2023-04-25T13:50:55.419Z,11.70
2023-04-25T13:53:22.279Z,11.70
2023-04-25T13:55:48.993Z,11.70
2023-04-25T13:58:15.759Z,11.80
2023-04-25T14:00:44.351Z,11.90
2023-04-25T14:03:11.282Z,12.00
2023-04-25T14:05:39.202Z,12.10
2023-04-25T14:08:08.011Z,12.10
2023-04-25T14:10:35.247Z,12.10
2023-04-25T14:13:02.392Z,12.20
2023-04-25T14:15:29.160Z,12.30
2023-04-25T14:17:56.041Z,12.20
2023-04-25T14:20:24.862Z,12.10
2023-04-25T14:22:53.052Z,12.10
2023-04-25T14:25:19.762Z,12.20
2023-04-25T14:27:50.592Z,12.20
2023-04-25T14:30:19.031Z,12.20
2023-04-25T14:32:46.382Z,12.20
2023-04-25T14:35:14.202Z,12.10
2023-04-25T14:37:41.166Z,12.20
2023-04-25T14:40:11.653Z,12.30
2023-04-25T14:42:38.715Z,12.50
2023-04-25T14:45:08.304Z,12.50
2023-04-25T14:47:37.048Z,12.50
2023-04-25T14:50:05.559Z,12.40
2023-04-25T14:52:32.330Z,12.20
2023-04-25T14:55:01.401Z,12.00
2023-04-25T14:57:28.150Z,11.70
2023-04-25T14:59:54.815Z,11.50
2023-04-25T15:02:21.519Z,11.30
2023-04-25T15:04:48.666Z,11.30
2023-04-25T15:07:18.250Z,11.30
2023-04-25T15:09:45.383Z,11.50
2023-04-25T15:12:13.032Z,11.60
2023-04-25T15:14:39.753Z,11.50
2023-04-25T15:17:07.074Z,11.50
2023-04-25T15:19:33.851Z,11.40
2023-04-25T15:22:02.326Z,11.40
2023-04-25T15:24:29.826Z,11.50
2023-04-25T15:26:56.627Z,11.60
2023-04-25T15:29:23.404Z,11.60
2023-04-25T15:31:50.278Z,11.50
2023-04-25T15:34:17.043Z,11.40
2023-04-25T15:36:43.788Z,11.30
2023-04-25T15:39:10.876Z,11.40
2023-04-25T15:41:37.810Z,11.50
2023-04-25T15:44:05.155Z,11.70
2023-04-25T15:46:32.086Z,11.90
2023-04-25T15:48:58.902Z,12.10
2023-04-25T15:51:25.600Z,12.10
2023-04-25T15:53:52.523Z,12.30
2023-04-25T15:56:19.651Z,12.40
2023-04-25T15:58:46.379Z,12.50
2023-04-25T16:01:13.668Z,12.40
2023-04-25T16:03:40.915Z,12.30
2023-04-25T16:06:08.155Z,12.20
2023-04-25T16:08:35.821Z,12.10
2023-04-25T16:11:03.278Z,12.00
2023-04-25T16:13:30.211Z,11.90
2023-04-25T16:15:57.714Z,11.90
2023-04-25T16:18:24.702Z,11.90
2023-04-25T16:20:51.685Z,11.90
2023-04-25T16:23:19.240Z,11.90
2023-04-25T16:25:46.214Z,11.80
2023-04-25T16:28:13.094Z,11.70
2023-04-25T16:30:39.807Z,11.70
2023-04-25T16:33:06.549Z,11.70
2023-04-25T16:35:33.369Z,11.60
2023-04-25T16:38:01.032Z,11.60
2023-04-25T16:40:27.867Z,11.50
2023-04-25T16:42:54.696Z,11.50
2023-04-25T16:45:21.913Z,11.50
2023-04-25T16:47:48.756Z,11.60
2023-04-25T16:50:16.255Z,11.70
2023-04-25T16:52:44.470Z,11.70
2023-04-25T16:55:11.473Z,11.80
2023-04-25T16:57:38.275Z,11.80
2023-04-25T17:00:06.536Z,11.80
2023-04-25T17:02:33.450Z,11.90
2023-04-25T17:05:00.429Z,11.90
2023-04-25T17:07:27.883Z,11.80
2023-04-25T17:09:54.712Z,11.70
2023-04-25T17:12:22.175Z,11.50
2023-04-25T17:14:49.958Z,11.40
2023-04-25T17:17:18.652Z,11.30
2023-04-25T17:19:45.814Z,11.10
2023-04-25T17:22:12.657Z,11.00
2023-04-25T17:24:40.774Z,10.90
2023-04-25T17:27:07.661Z,10.80
2023-04-25T17:29:35.226Z,10.70
2023-04-25T17:32:02.691Z,10.60
2023-04-25T17:34:29.471Z,10.40
2023-04-25T17:36:56.220Z,10.40
2023-04-25T17:39:23.050Z,10.30
2023-04-25T17:41:49.783Z,10.20
2023-04-25T17:44:16.531Z,10.10
2023-04-25T17:46:43.280Z,10.00
2023-04-25T17:49:10.031Z,9.90
2023-04-25T17:51:37.246Z,9.90
2023-04-25T17:54:04.049Z,9.80
2023-04-25T17:56:31.254Z,9.80
2023-04-25T17:58:58.173Z,10.00
2023-04-25T18:01:24.942Z,10.20
2023-04-25T18:03:52.373Z,10.30
2023-04-25T18:06:19.341Z,10.30
2023-04-25T18:08:47.100Z,10.40
2023-04-25T18:11:14.075Z,10.60
2023-04-25T18:13:41.185Z,10.80
2023-04-25T18:16:08.375Z,11.10
2023-04-25T18:18:36.423Z,11.10
2023-04-25T18:21:05.189Z,11.10
2023-04-25T18:23:34.187Z,10.90
2023-04-25T18:26:02.337Z,10.80
2023-04-25T18:28:29.426Z,10.60
2023-04-25T18:30:56.685Z,10.40
2023-04-25T18:33:23.694Z,10.20
2023-04-25T18:35:58.790Z,10.00
2023-04-25T18:41:08.369Z,9.70
2023-04-25T18:43:44.613Z,9.60
2023-04-25T18:46:11.795Z,9.50
2023-04-25T18:48:38.576Z,9.50
2023-04-25T18:51:05.695Z,9.50
2023-04-25T18:53:32.708Z,9.40
2023-04-25T18:55:59.401Z,9.40
2023-04-25T18:58:26.339Z,9.30
2023-04-25T19:00:53.557Z,9.30
2023-04-25T19:03:21.196Z,9.20
2023-04-25T19:05:48.027Z,9.10
2023-04-25T19:08:14.717Z,9.10
2023-04-25T19:10:41.395Z,9.10
2023-04-25T19:13:08.494Z,9.10
2023-04-25T19:15:35.384Z,9.00
2023-04-25T19:18:02.783Z,9.00
2023-04-25T19:20:29.596Z,9.10
2023-04-25T19:22:56.824Z,9.00
2023-04-25T19:25:25.009Z,8.90
2023-04-25T19:27:51.953Z,8.90
2023-04-25T19:30:19.344Z,8.90
2023-04-25T19:32:46.203Z,8.80
2023-04-25T19:35:13.439Z,8.80
2023-04-25T19:37:45.901Z,8.80
2023-04-25T19:40:15.858Z,8.80
2023-04-25T19:42:43.337Z,8.70
2023-04-25T19:45:10.658Z,8.80
2023-04-25T19:47:40.248Z,8.70
2023-04-25T19:50:08.529Z,8.70
2023-04-25T19:52:36.462Z,8.70
2023-04-25T19:55:05.002Z,8.70
2023-04-25T19:57:33.434Z,8.60
2023-04-25T20:00:01.936Z,8.70
2023-04-25T20:02:28.787Z,8.70
2023-04-25T20:04:56.292Z,8.60
2023-04-25T20:07:23.584Z,8.60
2023-04-25T20:09:50.686Z,8.60
2023-04-25T20:12:18.115Z,8.60
2023-04-25T20:14:45.055Z,8.60
2023-04-25T20:17:12.260Z,8.50
2023-04-25T20:19:39.353Z,8.60
2023-04-25T20:22:06.408Z,8.50
2023-04-25T20:24:33.153Z,8.60
2023-04-25T20:27:00.051Z,8.50
2023-04-25T20:29:27.148Z,8.50
2023-04-25T20:31:55.047Z,8.50
2023-04-25T20:34:22.508Z,8.50
2023-04-25T20:36:49.208Z,8.50
2023-04-25T20:39:15.980Z,8.50
2023-04-25T20:41:44.667Z,8.50
2023-04-25T20:44:12.497Z,8.50
2023-04-25T20:46:39.776Z,8.50
2023-04-25T20:49:06.548Z,8.50
2023-04-25T20:51:33.662Z,8.50
2023-04-25T20:54:00.800Z,8.50
2023-04-25T20:56:27.607Z,8.40
2023-04-25T20:58:55.666Z,8.40
2023-04-25T21:01:22.763Z,8.40
2023-04-25T21:03:50.672Z,8.40
2023-04-25T21:06:17.727Z,8.40
2023-04-25T21:08:44.544Z,8.40
2023-04-25T21:11:11.668Z,8.40
2023-04-25T21:13:38.742Z,8.40
2023-04-25T21:16:06.631Z,8.50
2023-04-25T21:18:34.793Z,8.50
2023-04-25T21:21:04.253Z,8.40
2023-04-25T21:23:31.811Z,8.30
2023-04-25T21:25:58.618Z,8.20
2023-04-25T21:28:25.543Z,8.10
2023-04-25T21:30:52.579Z,8.00
2023-04-25T21:33:19.397Z,8.00
2023-04-25T21:35:46.195Z,7.90
2023-04-25T21:38:13.066Z,7.90
2023-04-25T21:40:40.235Z,7.90
2023-04-25T21:43:07.386Z,7.90
2023-04-25T21:45:44.558Z,8.00
2023-04-25T21:48:21.817Z,8.10
2023-04-25T21:50:48.583Z,8.10
2023-04-25T21:53:15.895Z,8.20
2023-04-25T21:55:42.619Z,8.20
2023-04-25T21:58:09.332Z,8.20
2023-04-25T22:00:36.006Z,8.20
2023-04-25T22:03:02.960Z,8.20
2023-04-25T22:05:29.740Z,8.20
2023-04-25T22:07:57.106Z,8.10
2023-04-25T22:10:24.045Z,8.10
2023-04-25T22:12:51.092Z,8.10
2023-04-25T22:15:19.479Z,8.10
2023-04-25T22:17:47.163Z,8.00
2023-04-25T22:20:14.380Z,8.00
2023-04-25T22:22:41.864Z,8.00
2023-04-25T22:25:09.936Z,8.10
2023-04-25T22:27:36.699Z,8.00
2023-04-25T22:30:04.427Z,8.00
2023-04-25T22:32:31.313Z,8.00
2023-04-25T22:34:58.077Z,8.00
2023-04-25T22:37:24.982Z,8.00
2023-04-25T22:39:52.332Z,7.90
2023-04-25T22:42:19.284Z,8.00
2023-04-25T22:44:46.302Z,8.00
2023-04-25T22:47:13.122Z,8.10
2023-04-25T22:49:39.832Z,8.00
2023-04-25T22:52:08.511Z,8.10
2023-04-25T22:54:35.252Z,8.10
2023-04-25T22:57:02.001Z,8.00
2023-04-25T22:59:29.475Z,8.00
2023-04-25T23:01:56.499Z,8.00
2023-04-25T23:04:24.375Z,8.00
2023-04-25T23:06:51.257Z,7.90
2023-04-25T23:09:17.995Z,7.90
2023-04-25T23:11:44.770Z,7.90
2023-04-25T23:14:11.497Z,7.80
2023-04-25T23:16:38.302Z,7.80
2023-04-25T23:19:05.078Z,7.80
2023-04-25T23:21:32.088Z,7.80
2023-04-25T23:23:58.889Z,7.70
2023-04-25T23:26:25.704Z,7.80
2023-04-25T23:28:52.768Z,7.80
2023-04-25T23:31:19.955Z,7.80
2023-04-25T23:33:46.690Z,7.80
2023-04-25T23:36:21.232Z,7.70
2023-04-25T23:38:48.667Z,7.70
2023-04-25T23:41:15.404Z,7.70
2023-04-25T23:43:42.232Z,7.60
2023-04-25T23:46:09.617Z,7.60
2023-04-25T23:48:36.586Z,7.50
2023-04-25T23:51:03.481Z,7.50
2023-04-25T23:53:30.266Z,7.40
2023-04-25T23:55:56.980Z,7.40
2023-04-25T23:58:23.709Z,7.40
